Weather History for Osceola Municipal, IA

Change the Weather History Date:

Sunday, December 23, 2012

  Actual Average (KLWD) Record (KLWD)
Temperature  
Mean Temperature 19 °F 25 °F  
Max Temperature 26 °F 33 °F 64 °F (1964)
Min Temperature 12 °F 17 °F -22 °F (1989)
Degree Days  
Heating Degree Days 46 40  
Month to date heating degree days 858  
Since 1 July heating degree days 2106  
Cooling Degree Days 0 0  
Month to date cooling degree days 0  
Year to date cooling degree days 946  
Moisture  
Dew Point 14 °F    
Average Humidity 83    
Maximum Humidity 90    
Minimum Humidity 70    
Precipitation  
Precipitation 0.00 in 0.05 in 1.20 in (1965)
Month to date precipitation 1.16  
Sea Level Pressure  
Sea Level Pressure 29.97 in    
Wind  
Wind Speed 9 mph (North)    
Max Wind Speed 13 mph    
Max Gust Speed 16 mph    
Visibility 9 miles    
Events      
T = Trace of Precipitation, MM = Missing Value Source: NWS Daily Summary

Daily Weather History Graph

Daily Weather History Graph

Search for Another Location

Airport:

Trip Planner

Search our weather history database for the weather conditions in past years. The results will help you decide how hot, cold, wet, or windy it might be!

Date:

Astronomy

Dec. 23, 2012 Rise Set
Actual Time 7:37 AM CST 4:50 PM CST
Civil Twilight 7:06 AM CST 5:22 PM CST
Nautical Twilight 6:31 AM CST 5:56 PM CST
Astronomical Twilight 5:58 AM CST 6:30 PM CST
Moon 1:42 PM CST (12/23) 3:19 AM CST (12/23)
Length of Visible Light 10h 15m
Length of Day
9h 13m
Waxing Gibbous, 82% of the Moon is Illuminated
Dec 23
Waxing Gibbous
Dec 28
Full
Jan 4
Last Quarter
Jan 11
New
Jan 18
First Quarter

Hourly Weather History & Observations

Time (CST) Temp. Windchill Dew Point Humidity Pressure Visibility Wind Dir Wind Speed Gust Speed Precip Events Conditions
12:15 AM 21.9 °F 10.4 °F 18.5 °F 87% 29.94 in 10.0 mi NNW 11.5 mph - N/A   Clear
12:35 AM 21.2 °F 8.9 °F 18.0 °F 87% 29.94 in 10.0 mi NNW 12.7 mph - N/A   Clear
12:55 AM 20.5 °F 8.0 °F 17.4 °F 88% 29.94 in 10.0 mi NNW 12.7 mph - N/A   Clear
1:15 AM 19.9 °F 8.6 °F 16.5 °F 87% 29.95 in 10.0 mi North 10.4 mph - N/A   Clear
1:35 AM 19.0 °F 6.8 °F 15.6 °F 87% 29.94 in 10.0 mi NNW 11.5 mph - N/A   Clear
1:55 AM 18.5 °F 7.5 °F 15.1 °F 86% 29.95 in 10.0 mi NNW 9.2 mph - N/A   Clear
2:15 AM 17.6 °F 5.7 °F 14.5 °F 88% 29.96 in 10.0 mi NNW 10.4 mph - N/A   Clear
2:35 AM 17.2 °F 5.2 °F 14.2 °F 88% 29.96 in 7.0 mi NNW 10.4 mph - N/A   Clear
2:55 AM 16.7 °F 5.3 °F 13.8 °F 88% 29.96 in 7.0 mi NNW 9.2 mph - N/A   Clear
3:15 AM 16.5 °F 5.1 °F 13.6 °F 88% 29.96 in 7.0 mi NNW 9.2 mph - N/A   Clear
3:35 AM 15.8 °F 5.1 °F 13.1 °F 89% 29.95 in 7.0 mi NNW 8.1 mph - N/A   Clear
3:55 AM 15.3 °F 4.4 °F 12.6 °F 89% 29.95 in 7.0 mi NNW 8.1 mph - N/A   Clear
4:15 AM 14.7 °F 3.8 °F 12.0 °F 89% 29.94 in 7.0 mi NNW 8.1 mph - N/A   Clear
4:35 AM 14.5 °F 2.7 °F 11.8 °F 89% 29.95 in 7.0 mi NNW 9.2 mph - N/A   Clear
4:55 AM 14.4 °F 2.4 °F 11.3 °F 88% 29.96 in 7.0 mi NNW 9.2 mph - N/A   Clear
5:15 AM 14.0 °F 2.9 °F 11.1 °F 88% 29.97 in 10.0 mi NNW 8.1 mph - N/A   Clear
5:35 AM 13.8 °F 1.8 °F 10.8 °F 88% 29.97 in 10.0 mi North 9.2 mph - N/A   Clear
5:55 AM 13.8 °F 1.0 °F 10.4 °F 86% 29.98 in 10.0 mi NNW 10.4 mph - N/A   Clear
6:15 AM 13.6 °F 1.6 °F 10.4 °F 87% 29.98 in 10.0 mi North 9.2 mph - N/A   Clear
6:35 AM 13.5 °F 1.3 °F 10.2 °F 87% 29.98 in 10.0 mi North 9.2 mph - N/A   Clear
6:55 AM 13.5 °F 0.5 °F 10.2 °F 87% 29.99 in 10.0 mi NNW 10.4 mph - N/A   Clear
7:15 AM 12.9 °F 1.6 °F 9.5 °F 86% 29.99 in 10.0 mi NNW 8.1 mph - N/A   Clear
7:35 AM 12.9 °F 5.2 °F 9.3 °F 86% 30.00 in 10.0 mi NW 4.6 mph - N/A   Clear
7:55 AM 12.6 °F 3.4 °F 9.0 °F 85% 30.01 in 7.0 mi NNW 5.8 mph - N/A   Clear
8:15 AM 12.6 °F 4.8 °F 9.1 °F 86% 30.02 in 7.0 mi NW 4.6 mph - N/A   Clear
8:35 AM 13.3 °F 2.0 °F 9.5 °F 85% 30.02 in 7.0 mi NNW 8.1 mph - N/A   Clear
8:55 AM 14.0 °F 3.9 °F 10.2 °F 85% 30.02 in 7.0 mi NNW 6.9 mph - N/A   Clear
9:15 AM 14.9 °F 6.1 °F 10.4 °F 82% 30.02 in 7.0 mi North 5.8 mph - N/A   Clear
9:35 AM 15.6 °F 7.0 °F 11.3 °F 83% 30.01 in 7.0 mi NNE 5.8 mph - N/A   Clear
9:55 AM 16.9 °F 5.5 °F 11.8 °F 81% 30.01 in 7.0 mi NNE 9.2 mph - N/A   Clear
10:15 AM 17.8 °F 7.5 °F 12.7 °F 81% 30.01 in 10.0 mi NE 8.1 mph - N/A   Clear
10:35 AM 19.6 °F 7.4 °F 13.8 °F 78% 30.00 in 10.0 mi NE 11.5 mph - N/A   Clear
10:55 AM 21.0 °F 11.4 °F 14.7 °F 77% 30.00 in 10.0 mi NNE 8.1 mph - N/A   Clear
11:15 AM 22.1 °F 14.7 °F 15.4 °F 76% 30.01 in 10.0 mi North 5.8 mph - N/A   Clear
11:35 AM 23.0 °F 18.4 °F 15.3 °F 72% 30.00 in 10.0 mi North 3.5 mph - N/A   Clear
11:55 AM 23.0 °F 15.8 °F 15.4 °F 73% 29.98 in 10.0 mi NNE 5.8 mph - N/A   Clear
12:15 PM 23.5 °F 17.6 °F 15.8 °F 72% 29.97 in 10.0 mi NNE 4.6 mph - N/A   Clear
12:35 PM 24.1 °F 17.0 °F 16.2 °F 72% 29.96 in 10.0 mi NE 5.8 mph - N/A   Clear
12:55 PM 24.6 °F 17.7 °F 16.5 °F 71% 29.95 in 10.0 mi NE 5.8 mph - N/A   Clear
1:15 PM 25.2 °F 18.3 °F 16.9 °F 71% 29.95 in 10.0 mi NNE 5.8 mph - N/A   Clear
1:35 PM 25.9 °F 19.2 °F 17.2 °F 70% 29.95 in 10.0 mi North 5.8 mph - N/A   Clear
1:55 PM 25.7 °F 19.0 °F 17.2 °F 70% 29.94 in 10.0 mi NNE 5.8 mph - N/A   Clear
2:15 PM 26.2 °F 19.6 °F 18.0 °F 71% 29.95 in 10.0 mi NNE 5.8 mph - N/A   Clear
2:35 PM 26.2 °F 18.6 °F 17.6 °F 70% 29.95 in 10.0 mi North 6.9 mph - N/A   Clear
2:55 PM 25.5 °F 16.9 °F 17.8 °F 72% 29.95 in 10.0 mi North 8.1 mph - N/A   Clear
3:15 PM 24.8 °F 15.3 °F 17.6 °F 74% 29.94 in 10.0 mi North 9.2 mph - N/A   Clear
3:35 PM 24.4 °F 15.6 °F 17.2 °F 74% 29.95 in 10.0 mi North 8.1 mph - N/A   Clear
3:55 PM 24.3 °F 13.9 °F 17.2 °F 75% 29.96 in 10.0 mi North 10.4 mph - N/A   Clear
4:15 PM 23.5 °F 11.8 °F 16.9 °F 76% 29.96 in 10.0 mi North 12.7 mph 16.1 mph N/A   Clear
4:35 PM 22.6 °F 12.6 °F 16.5 °F 77% 29.97 in 10.0 mi North 9.2 mph - N/A   Clear
4:55 PM 21.9 °F 13.4 °F 16.3 °F 79% 29.95 in 10.0 mi NNE 6.9 mph - N/A   Clear
5:15 PM 21.4 °F 11.9 °F 16.5 °F 82% 29.96 in 10.0 mi North 8.1 mph - N/A   Clear
5:35 PM 21.6 °F 12.1 °F 16.5 °F 81% 29.95 in 10.0 mi NNE 8.1 mph - N/A   Clear
5:55 PM 21.0 °F 9.9 °F 16.5 °F 83% 29.95 in 10.0 mi NNE 10.4 mph - N/A   Clear
6:15 PM 20.8 °F 9.7 °F 16.5 °F 83% 29.94 in 10.0 mi NNE 10.4 mph - N/A   Clear
6:35 PM 20.3 °F 10.6 °F 16.2 °F 84% 29.94 in 10.0 mi NNE 8.1 mph - N/A   Clear
6:55 PM 20.3 °F 10.6 °F 16.3 °F 85% 29.94 in 10.0 mi NNE 8.1 mph - N/A   Clear
7:15 PM 20.3 °F 13.8 °F 16.2 °F 84% 29.96 in 10.0 mi North 4.6 mph - N/A   Clear
7:35 PM 20.1 °F 15.2 °F 16.0 °F 84% 29.96 in 10.0 mi North 3.5 mph - N/A   Clear
7:55 PM 19.8 °F 11.9 °F 15.8 °F 85% 29.97 in 10.0 mi North 5.8 mph - N/A   Clear
8:15 PM 19.4 °F 12.8 °F 15.8 °F 86% 29.97 in 10.0 mi North 4.6 mph - N/A   Clear
8:55 PM 18.5 °F 9.3 °F 15.3 °F 87% 29.98 in 7.0 mi North 6.9 mph - N/A   Clear
9:15 PM 18.5 °F 10.4 °F 15.3 °F 87% 29.96 in 7.0 mi NNE 5.8 mph - N/A   Clear
9:35 PM 18.5 °F 11.7 °F 15.3 °F 87% 29.95 in 7.0 mi NE 4.6 mph - N/A   Clear
9:55 PM 18.5 °F 9.3 °F 15.4 °F 88% 29.98 in 7.0 mi NNW 6.9 mph - N/A   Clear
10:15 PM 18.5 °F 10.4 °F 15.4 °F 88% 29.96 in 7.0 mi North 5.8 mph - N/A   Clear
10:35 PM 18.3 °F 10.2 °F 15.3 °F 88% 29.95 in 7.0 mi North 5.8 mph - N/A   Clear
10:55 PM 18.0 °F 8.7 °F 14.9 °F 88% 29.96 in 7.0 mi North 6.9 mph - N/A   Clear
11:15 PM 17.4 °F 7.1 °F 14.7 °F 89% 29.97 in 7.0 mi NNW 8.1 mph - N/A   Scattered Clouds
11:35 PM 17.1 °F 7.6 °F 14.5 °F 90% 29.95 in 7.0 mi North 6.9 mph - N/A   Mostly Cloudy
11:55 PM 17.4 °F 9.1 °F 14.9 °F 90% 29.94 in 5.0 mi North 5.8 mph - N/A   Overcast